Time;durP1;ratioP1;P1;durP2;ratioP2;P2;SDS_P1;SDS_P2;PMS_P1;PMS_P2;Temp;Humidity;BMP_temperature;BMP_pressure;BME280_temperature;BME280_humidity;BME280_pressure;Samples;Min_cycle;Max_cycle;Signal;HPM_P1;HPM_P2
2022/10/02 00:00:28;;;;;;;4.33;1.20;;;;;;;9.65;100.00;100849.78;5008577;28;20435;-76
2022/10/02 00:03:22;;;;;;;3.83;1.40;;;;;;;10.85;100.00;100996.31;5004681;28;20821;-76
2022/10/02 00:05:54;;;;;;;4.13;1.37;;;;;;;9.88;100.00;100913.84;5004179;28;20467;-76
2022/10/02 00:08:27;;;;;;;4.90;1.20;;;;;;;9.25;100.00;100772.56;5010268;28;20439;-76
2022/10/02 00:11:06;;;;;;;10.57;1.70;;;;;;;9.34;100.00;100781.31;5026828;28;20447;-76
2022/10/02 00:13:59;;;;;;;5.47;1.47;;;;;;;10.42;100.00;100971.47;5025004;28;20482;-75
2022/10/02 00:16:36;;;;;;;9.50;1.97;;;;;;;11.55;100.00;101169.00;5002993;28;20889;-75
2022/10/02 00:19:02;;;;;;;5.57;1.33;;;;;;;10.44;100.00;100991.66;5022140;28;20434;-75
2022/10/02 00:21:38;;;;;;;6.90;2.07;;;;;;;10.95;100.00;101042.41;5025145;28;20446;-77
2022/10/02 00:24:06;;;;;;;7.33;2.30;;;;;;;9.47;100.00;100800.19;5007587;28;21070;-77
2022/10/02 00:26:39;;;;;;;3.90;1.30;;;;;;;11.72;100.00;101177.59;5025761;28;20466;-77
2022/10/02 00:29:16;;;;;;;7.40;1.90;;;;;;;10.68;100.00;101036.03;5023639;28;20434;-77
2022/10/02 00:32:00;;;;;;;8.20;2.07;;;;;;;9.65;100.00;100885.41;5024768;28;20950;-76
2022/10/02 00:34:31;;;;;;;4.33;2.00;;;;;;;11.82;100.00;101175.34;5021880;28;20479;-77
2022/10/02 00:36:57;;;;;;;4.20;1.30;;;;;;;11.38;100.00;101082.53;5024821;28;20485;-76
2022/10/02 00:39:51;;;;;;;6.03;1.70;;;;;;;10.93;100.00;101031.03;5008485;28;20450;-77
2022/10/02 00:42:31;;;;;;;4.20;1.70;;;;;;;11.88;100.00;101179.97;5025853;28;20193;-76
2022/10/02 00:45:33;;;;;;;5.33;1.67;;;;;;;11.51;100.00;101100.56;5023151;28;20854;-76
2022/10/02 00:48:12;;;;;;;4.93;1.30;;;;;;;12.11;100.00;101173.47;5004063;28;20470;-77
2022/10/02 00:50:46;;;;;;;6.33;1.50;;;;;;;12.25;100.00;101179.72;5023859;28;20487;-80
2022/10/02 00:53:46;;;;;;;6.10;1.20;;;;;;;12.27;100.00;101189.25;5003724;28;20548;-78
2022/10/02 00:56:19;;;;;;;7.67;1.63;;;;;;;10.93;100.00;101012.25;5030383;28;20447;-78
2022/10/02 00:59:09;;;;;;;4.67;1.40;;;;;;;11.72;100.00;101096.97;5031697;28;20451;-78
2022/10/02 01:02:31;;;;;;;5.20;1.50;;;;;;;10.13;100.00;100904.38;5032132;28;20425;-77
2022/10/02 01:04:59;;;;;;;6.40;1.90;;;;;;;10.73;100.00;101004.09;4915837;29;20444;-79
2022/10/02 01:07:25;;;;;;;4.40;1.70;;;;;;;12.12;100.00;101186.72;5005914;28;20798;-77
2022/10/02 01:09:50;;;;;;;5.30;1.63;;;;;;;10.09;100.00;100896.91;5034635;28;20506;-79
2022/10/02 01:12:15;;;;;;;4.33;1.40;;;;;;;10.67;100.00;100969.16;5030548;28;20184;-78
2022/10/02 01:14:41;;;;;;;6.67;1.43;;;;;;;10.66;100.00;100983.59;5031899;28;20205;-78
2022/10/02 01:17:25;;;;;;;6.53;2.20;;;;;;;10.03;100.00;100892.34;5012838;28;20860;-78
2022/10/02 01:19:51;;;;;;;5.10;1.30;;;;;;;9.96;100.00;100903.00;5031402;28;20565;-78
2022/10/02 01:22:20;;;;;;;7.03;1.33;;;;;;;11.74;100.00;101137.91;5032159;28;20433;-78
2022/10/02 01:24:50;;;;;;;6.13;1.53;;;;;;;9.94;100.00;100888.97;5012054;28;20435;-78
2022/10/02 01:27:16;;;;;;;3.67;1.23;;;;;;;9.87;100.00;100882.75;5028639;28;20443;-78
2022/10/02 01:29:50;;;;;;;5.77;1.50;;;;;;;12.15;100.00;101242.78;5010502;28;20450;-77
2022/10/02 01:32:17;;;;;;;10.67;1.80;;;;;;;10.75;100.00;101015.44;5029739;28;20200;-77
2022/10/02 01:34:44;;;;;;;11.63;2.10;;;;;;;11.34;100.00;101116.19;5013129;28;20474;-77
2022/10/02 01:37:11;;;;;;;3.63;1.40;;;;;;;12.11;100.00;101229.94;5012876;28;20466;-76
2022/10/02 01:39:37;;;;;;;8.23;1.80;;;;;;;9.85;100.00;100848.09;5029578;28;20530;-78
2022/10/02 01:42:03;;;;;;;12.10;1.93;;;;;;;9.61;100.00;100849.34;5027865;28;20538;-76
2022/10/02 01:44:29;;;;;;;7.17;1.97;;;;;;;9.64;100.00;100840.09;5031385;28;20184;-77
2022/10/02 01:47:08;;;;;;;8.70;2.20;;;;;;;10.04;100.00;100893.97;5011906;28;20269;-77
2022/10/02 01:49:46;;;;;;;10.37;2.07;;;;;;;12.09;100.00;101223.91;5031566;28;20489;-76
2022/10/02 01:52:48;;;;;;;5.33;1.70;;;;;;;12.04;100.00;101221.00;5031936;28;20469;-78
2022/10/02 01:55:29;;;;;;;8.00;2.50;;;;;;;11.00;100.00;101090.97;5013508;28;20466;-77
2022/10/02 01:58:23;;;;;;;7.87;2.10;;;;;;;9.76;100.00;100881.41;5026269;28;20502;-77
2022/10/02 02:01:15;;;;;;;6.83;2.10;;;;;;;10.78;100.00;101068.72;5031088;28;20462;-77
2022/10/02 02:03:46;;;;;;;10.30;2.40;;;;;;;12.02;100.00;101220.38;5031699;28;20434;-76
2022/10/02 02:06:25;;;;;;;10.70;2.77;;;;;;;11.44;100.00;101140.00;5029780;28;20510;-77
2022/10/02 02:09:08;;;;;;;14.23;2.60;;;;;;;12.07;100.00;101229.50;5033160;28;21126;-77
2022/10/02 02:11:40;;;;;;;8.73;2.90;;;;;;;11.15;100.00;101109.66;5031511;28;20474;-77
2022/10/02 02:14:16;;;;;;;8.30;2.10;;;;;;;10.52;100.00;101017.53;5025847;28;20470;-78
2022/10/02 02:16:52;;;;;;;14.30;2.17;;;;;;;9.93;100.00;100924.84;5013492;28;20489;-77
2022/10/02 02:19:26;;;;;;;6.90;2.10;;;;;;;11.29;100.00;101113.28;5015490;28;20473;-77
2022/10/02 02:22:00;;;;;;;10.80;2.57;;;;;;;10.58;100.00;100992.63;5024785;28;20438;-78
2022/10/02 02:24:51;;;;;;;4.87;1.60;;;;;;;12.03;100.00;101230.09;5023840;28;20952;-77
2022/10/02 02:27:21;;;;;;;13.30;2.60;;;;;;;9.97;100.00;100950.22;5012584;28;20465;-77
2022/10/02 02:29:50;;;;;;;12.70;2.50;;;;;;;9.54;100.00;100845.75;5018731;28;20439;-77
2022/10/02 02:32:20;;;;;;;12.13;2.20;;;;;;;11.80;100.00;101282.22;5010237;28;20768;-78
2022/10/02 02:34:53;;;;;;;12.70;2.50;;;;;;;10.54;100.00;101058.41;4999897;28;20533;-77
2022/10/02 02:37:23;;;;;;;10.00;2.40;;;;;;;9.81;100.00;100926.38;5027821;28;20959;-76
2022/10/02 02:39:54;;;;;;;10.83;2.80;;;;;;;10.31;100.00;101050.56;5021730;28;20435;-77
2022/10/02 02:42:23;;;;;;;8.50;2.40;;;;;;;11.19;100.00;101196.84;5016149;28;21180;-77
2022/10/02 02:44:52;;;;;;;8.80;2.00;;;;;;;9.66;100.00;100927.25;5010910;28;20613;-76
2022/10/02 02:47:31;;;;;;;6.47;2.10;;;;;;;9.89;100.00;101003.91;5026203;28;21030;-77
2022/10/02 02:50:10;;;;;;;12.67;2.70;;;;;;;10.31;100.00;101064.78;5010221;28;20465;-77
2022/10/02 02:52:43;;;;;;;9.00;2.23;;;;;;;11.55;100.00;101246.94;5021026;28;20438;-77
2022/10/02 02:55:14;;;;;;;12.63;2.73;;;;;;;9.69;100.00;100956.34;5025147;28;20459;-76
2022/10/02 02:57:57;;;;;;;12.57;2.33;;;;;;;11.63;100.00;101272.78;5021522;28;20454;-76
2022/10/02 03:00:23;;;;;;;11.73;2.20;;;;;;;11.37;100.00;101211.63;5007523;28;20437;-76
2022/10/02 03:02:53;;;;;;;13.90;2.10;;;;;;;9.60;100.00;100981.56;5006511;28;20526;-77
2022/10/02 03:05:20;;;;;;;8.10;2.60;;;;;;;9.48;100.00;100959.78;5015435;28;20538;-77
2022/10/02 03:07:51;;;;;;;7.00;2.20;;;;;;;11.54;100.00;101285.53;5026623;28;20439;-77
2022/10/02 03:10:58;;;;;;;13.70;2.03;;;;;;;10.11;100.00;101019.00;5028404;28;20439;-76
2022/10/02 03:13:36;;;;;;;7.70;1.90;;;;;;;11.61;100.00;101253.38;5028557;28;20560;-77
2022/10/02 03:16:24;;;;;;;10.50;2.23;;;;;;;11.52;100.00;101258.88;5028575;28;20466;-77
2022/10/02 03:18:59;;;;;;;14.27;2.10;;;;;;;11.53;100.00;101257.84;5030521;28;20431;-76
2022/10/02 03:22:00;;;;;;;17.90;2.83;;;;;;;9.78;100.00;101023.16;5027730;28;20450;-75
2022/10/02 03:24:28;;;;;;;13.40;2.57;;;;;;;11.48;100.00;101268.34;5008016;28;20435;-76
2022/10/02 03:27:00;;;;;;;9.83;2.40;;;;;;;11.60;100.00;101276.72;5012242;28;21199;-76
2022/10/02 03:29:37;;;;;;;15.97;3.10;;;;;;;10.70;100.00;101135.91;5013281;28;20454;-76
2022/10/02 03:32:05;;;;;;;9.33;2.20;;;;;;;11.67;100.00;101339.41;5027512;28;20443;-76
2022/10/02 03:34:32;;;;;;;9.83;2.53;;;;;;;9.77;100.00;101016.16;5012116;28;21141;-75
2022/10/02 03:36:59;;;;;;;10.33;2.67;;;;;;;10.74;100.00;101196.22;5010030;28;20455;-76
2022/10/02 03:39:25;;;;;;;7.00;2.27;;;;;;;9.77;100.00;100959.91;5028678;28;20431;-78
2022/10/02 03:41:50;;;;;;;7.60;2.50;;;;;;;9.69;100.00;100956.34;5030017;28;20501;-78
2022/10/02 03:44:16;;;;;;;10.60;2.37;;;;;;;9.59;100.00;100939.75;5019860;28;20184;-80
2022/10/02 03:46:42;;;;;;;12.23;2.17;;;;;;;10.86;100.00;101177.78;5024483;28;20197;-80
2022/10/02 03:49:07;;;;;;;11.03;2.40;;;;;;;11.80;100.00;101305.59;5064090;23;20508;-70
2022/10/02 03:51:33;;;;;;;8.60;2.50;;;;;;;11.65;100.00;101292.25;5087392;28;20202;-69
2022/10/02 03:53:58;;;;;;;9.63;1.60;;;;;;;11.93;100.00;101311.94;5087822;28;20777;-69
2022/10/02 03:56:45;;;;;;;8.87;1.90;;;;;;;11.62;100.00;101279.19;5065219;28;20197;-69
2022/10/02 03:59:26;;;;;;;4.40;1.30;;;;;;;11.53;100.00;101252.47;5087557;28;20239;-69
2022/10/02 04:01:56;;;;;;;7.80;1.50;;;;;;;11.84;100.00;101304.19;5084679;28;20441;-69
2022/10/02 04:04:27;;;;;;;5.87;1.60;;;;;;;11.85;100.00;101295.94;5088781;28;20454;-69
2022/10/02 04:07:03;;;;;;;5.07;1.73;;;;;;;11.87;100.00;101295.75;5073404;28;20442;-69
2022/10/02 04:09:36;;;;;;;5.47;1.57;;;;;;;11.83;100.00;101307.88;5057035;28;20446;-70
2022/10/02 04:12:10;;;;;;;6.17;1.60;;;;;;;11.73;100.00;101276.00;5073243;28;20429;-70
2022/10/02 04:14:43;;;;;;;6.87;1.60;;;;;;;11.80;100.00;101309.09;5072404;28;20490;-70
2022/10/02 04:17:14;;;;;;;2.70;1.00;;;;;;;11.96;100.00;101294.59;5080069;22;20497;-73
2022/10/02 04:19:53;;;;;;;3.50;1.37;;;;;;;12.20;100.00;101329.06;5053203;28;20448;-73
2022/10/02 04:22:39;;;;;;;5.47;1.60;;;;;;;12.24;100.00;101320.59;5071146;28;21167;-72
2022/10/02 04:25:07;;;;;;;7.37;1.30;;;;;;;12.11;100.00;101319.50;5071807;28;20453;-73
2022/10/02 04:27:38;;;;;;;6.17;1.80;;;;;;;11.77;100.00;101317.56;5071376;28;20493;-72
2022/10/02 04:30:10;;;;;;;5.53;1.47;;;;;;;11.76;100.00;101315.91;5063208;28;20463;-72
2022/10/02 04:32:36;;;;;;;6.10;1.20;;;;;;;11.51;100.00;101304.72;5074301;28;20437;-72
2022/10/02 04:35:13;;;;;;;4.90;1.40;;;;;;;11.37;100.00;101273.41;5053753;28;20789;-72
2022/10/02 04:37:56;;;;;;;3.23;1.30;;;;;;;11.94;100.00;101316.25;5072022;28;20967;-72
2022/10/02 04:40:49;;;;;;;6.00;1.67;;;;;;;11.66;100.00;101278.63;5070268;28;20538;-72
2022/10/02 04:43:36;;;;;;;7.20;1.80;;;;;;;12.07;100.00;101317.41;5075246;28;20448;-73
2022/10/02 04:46:49;;;;;;;7.97;2.17;;;;;;;12.06;100.00;101330.00;5070663;28;20472;-73
2022/10/02 04:49:47;;;;;;;8.57;1.60;;;;;;;12.17;100.00;101331.31;5022853;28;20493;-72
2022/10/02 04:52:30;;;;;;;7.50;1.77;;;;;;;12.12;100.00;101326.53;5071189;28;20448;-72
2022/10/02 04:55:26;;;;;;;11.67;3.10;;;;;;;12.15;100.00;101333.38;5075369;28;20484;-72
2022/10/02 04:58:07;;;;;;;13.43;2.03;;;;;;;12.20;100.00;101337.13;5074034;28;20443;-72
2022/10/02 05:00:44;;;;;;;9.67;1.90;;;;;;;11.95;100.00;101301.81;5075196;28;20422;-72
2022/10/02 05:03:28;;;;;;;7.60;2.43;;;;;;;12.16;100.00;101337.72;5074483;28;20500;-73
2022/10/02 05:06:18;;;;;;;10.53;1.93;;;;;;;12.07;100.00;101341.59;5076124;28;20440;-72
2022/10/02 05:09:03;;;;;;;9.80;2.40;;;;;;;12.15;100.00;101352.19;5078473;28;20416;-73
2022/10/02 05:11:37;;;;;;;7.37;1.93;;;;;;;12.17;100.00;101352.84;5070692;28;20422;-72
2022/10/02 05:14:23;;;;;;;11.10;2.80;;;;;;;12.17;100.00;101358.22;5072742;28;20462;-72
2022/10/02 05:17:18;;;;;;;10.80;2.07;;;;;;;12.18;100.00;101352.66;5075082;28;20530;-73
2022/10/02 05:20:12;;;;;;;11.80;2.37;;;;;;;12.24;100.00;101356.41;5077550;28;20421;-72
2022/10/02 05:22:46;;;;;;;9.80;2.00;;;;;;;12.16;100.00;101359.25;5073076;28;20408;-72
2022/10/02 05:25:50;;;;;;;5.00;1.60;;;;;;;11.98;100.00;101328.31;5072183;28;20444;-72
2022/10/02 05:28:43;;;;;;;9.57;2.87;;;;;;;12.13;100.00;101365.84;5046001;28;21232;-72
2022/10/02 05:31:30;;;;;;;9.70;2.27;;;;;;;11.39;100.00;101231.91;5065480;28;20436;-72
2022/10/02 05:34:23;;;;;;;8.80;2.77;;;;;;;11.93;100.00;101336.13;5050921;28;20464;-72
2022/10/02 05:37:03;;;;;;;9.13;2.50;;;;;;;12.17;100.00;101374.34;5056340;28;20543;-72
2022/10/02 05:39:45;;;;;;;13.40;2.60;;;;;;;12.10;100.00;101378.84;5042635;28;20445;-72
2022/10/02 05:42:11;;;;;;;13.10;2.30;;;;;;;12.12;100.00;101368.72;5053333;28;21016;-72
2022/10/02 05:44:39;;;;;;;9.00;2.30;;;;;;;12.03;100.00;101348.38;5074892;28;20443;-72
2022/10/02 05:47:18;;;;;;;9.73;2.50;;;;;;;12.07;100.00;101377.38;5067830;28;20207;-73
2022/10/02 05:50:10;;;;;;;9.33;2.40;;;;;;;11.69;100.00;101321.25;5078007;28;20523;-72
2022/10/02 05:52:38;;;;;;;11.60;2.47;;;;;;;11.95;100.00;101369.03;5050843;28;20567;-72
2022/10/02 05:55:17;;;;;;;7.50;2.20;;;;;;;11.91;100.00;101350.78;5060714;28;20942;-72
2022/10/02 05:58:00;;;;;;;9.20;1.90;;;;;;;12.08;100.00;101388.97;5079206;28;20539;-72
2022/10/02 06:00:39;;;;;;;12.53;2.27;;;;;;;11.87;100.00;101353.03;5078291;28;20434;-72
2022/10/02 06:03:43;;;;;;;11.70;2.57;;;;;;;12.02;100.00;101377.13;5076700;28;20433;-72
2022/10/02 06:06:31;;;;;;;11.03;2.17;;;;;;;11.97;100.00;101385.78;5075295;28;20563;-72
2022/10/02 06:09:19;;;;;;;8.67;2.17;;;;;;;11.57;100.00;101295.06;5073389;28;20424;-72
2022/10/02 06:12:03;;;;;;;8.90;2.77;;;;;;;11.76;100.00;101346.28;5075025;28;20461;-72
2022/10/02 06:14:37;;;;;;;10.27;2.90;;;;;;;11.25;100.00;101273.97;5078889;28;20498;-72
2022/10/02 06:17:26;;;;;;;8.93;2.53;;;;;;;12.02;100.00;101389.75;5078977;28;20456;-72
2022/10/02 06:20:13;;;;;;;11.63;2.27;;;;;;;12.01;100.00;101388.94;5074908;28;20429;-72
2022/10/02 06:22:51;;;;;;;11.90;2.50;;;;;;;11.42;100.00;101303.22;5075534;28;20972;-72
2022/10/02 06:25:20;;;;;;;5.43;2.40;;;;;;;12.15;100.00;101408.66;5076220;28;20638;-71
2022/10/02 06:27:54;;;;;;;11.00;2.50;;;;;;;12.08;100.00;101410.47;5078545;28;20437;-71
2022/10/02 06:30:20;;;;;;;13.43;3.40;;;;;;;11.11;100.00;101255.19;5075560;28;20486;-71
2022/10/02 06:33:02;;;;;;;9.50;2.50;;;;;;;12.20;100.00;101425.88;5058885;28;20441;-72
2022/10/02 06:35:41;;;;;;;14.90;2.53;;;;;;;11.44;100.00;101307.38;5076086;28;20591;-72
2022/10/02 06:38:18;;;;;;;11.43;2.53;;;;;;;12.16;100.00;101421.94;5073681;28;20585;-72
2022/10/02 06:40:59;;;;;;;6.83;1.73;;;;;;;12.04;100.00;101380.47;5078068;28;20455;-72
2022/10/02 06:43:33;;;;;;;8.70;2.33;;;;;;;12.40;100.00;101428.72;5072672;28;20474;-72
2022/10/02 06:46:26;;;;;;;6.53;2.03;;;;;;;12.41;100.00;101430.41;5074073;28;20441;-72
2022/10/02 06:48:57;;;;;;;10.90;2.53;;;;;;;12.55;100.00;101438.53;5071159;28;20459;-72
2022/10/02 06:51:53;;;;;;;10.07;2.60;;;;;;;11.96;100.00;101326.84;5065577;28;20986;-72
2022/10/02 06:54:40;;;;;;;10.13;2.60;;;;;;;12.02;100.00;101292.97;5068897;28;20542;-72
2022/10/02 06:57:22;;;;;;;10.70;2.30;;;;;;;12.50;100.00;101374.56;5068791;28;20514;-72
2022/10/02 06:59:54;;;;;;;11.63;2.47;;;;;;;12.93;100.00;101424.66;5067818;28;20444;-72
2022/10/02 07:02:22;;;;;;;7.37;1.80;;;;;;;12.85;100.00;101423.81;5072037;28;20499;-72
2022/10/02 07:05:01;;;;;;;9.57;2.60;;;;;;;12.81;100.00;101436.00;5071408;28;20476;-72
2022/10/02 07:07:42;;;;;;;11.60;2.70;;;;;;;12.84;100.00;101432.94;5076108;28;20444;-73
2022/10/02 07:10:24;;;;;;;11.10;2.53;;;;;;;12.73;100.00;101428.13;5068115;28;20474;-72
2022/10/02 07:13:11;;;;;;;10.40;2.40;;;;;;;12.70;100.00;101447.34;5074449;28;20506;-72
2022/10/02 07:16:08;;;;;;;15.10;3.10;;;;;;;12.67;100.00;101463.91;5058051;28;20432;-73
2022/10/02 07:19:05;;;;;;;12.50;3.00;;;;;;;12.36;100.00;101407.81;5062301;28;20425;-72
2022/10/02 07:21:45;;;;;;;10.50;2.60;;;;;;;12.69;100.00;101459.13;5034618;28;20449;-72
2022/10/02 07:24:25;;;;;;;13.50;3.80;;;;;;;12.59;100.00;101472.13;5051290;28;20790;-70
2022/10/02 07:27:06;;;;;;;11.27;4.37;;;;;;;12.02;100.00;101389.75;5071270;28;20463;-73
2022/10/02 07:29:47;;;;;;;11.77;2.80;;;;;;;12.33;100.00;101441.31;5074153;28;20417;-73
2022/10/02 07:32:33;;;;;;;12.23;4.00;;;;;;;12.15;100.00;101422.09;5071152;28;20433;-73
2022/10/02 07:35:27;;;;;;;8.30;3.13;;;;;;;12.32;100.00;101450.38;5068855;28;20830;-72
2022/10/02 07:38:02;;;;;;;8.73;2.73;;;;;;;12.45;100.00;101471.19;5047240;28;20468;-73
2022/10/02 07:40:45;;;;;;;12.00;2.83;;;;;;;12.28;100.00;101450.97;5057306;28;20970;-73
2022/10/02 07:43:50;;;;;;;15.60;2.90;;;;;;;12.41;100.00;101481.50;5041285;28;20433;-72
2022/10/02 07:46:20;;;;;;;12.40;2.90;;;;;;;12.49;100.00;101485.06;5060189;28;20492;-73
2022/10/02 07:49:03;;;;;;;8.73;2.77;;;;;;;12.42;100.00;101485.03;5067571;28;20449;-72
2022/10/02 07:51:52;;;;;;;13.73;2.53;;;;;;;12.06;100.00;101442.09;5059101;28;20956;-73
2022/10/02 07:54:47;;;;;;;5.40;1.80;;;;;;;12.30;100.00;101492.81;5074487;28;20463;-72
2022/10/02 07:57:22;;;;;;;7.60;1.60;;;;;;;12.26;100.00;101496.88;5058436;28;20573;-73
2022/10/02 07:59:50;;;;;;;8.30;2.10;;;;;;;11.86;100.00;101458.03;5061694;28;20440;-71
2022/10/02 08:02:45;;;;;;;11.03;1.60;;;;;;;12.30;100.00;101518.88;5058884;28;20440;-71
2022/10/02 08:05:37;;;;;;;4.00;1.53;;;;;;;12.04;100.00;101514.09;5055416;28;20880;-71
2022/10/02 08:08:11;;;;;;;8.67;2.53;;;;;;;11.42;100.00;101430.28;5061688;28;21008;-70
2022/10/02 08:10:40;;;;;;;4.30;1.00;;;;;;;11.23;100.00;101382.56;5064181;28;20563;-71
2022/10/02 08:13:13;;;;;;;3.73;1.17;;;;;;;11.95;100.00;101522.25;5062723;28;20485;-71
2022/10/02 08:15:43;;;;;;;6.70;1.67;;;;;;;11.31;100.00;101437.00;5067452;28;20795;-71
2022/10/02 08:18:26;;;;;;;6.30;2.07;;;;;;;12.00;100.00;101527.06;5061104;28;20483;-70
2022/10/02 08:20:51;;;;;;;4.63;1.63;;;;;;;12.05;100.00;101516.56;5069618;28;20934;-72
2022/10/02 08:23:32;;;;;;;6.00;1.53;;;;;;;12.26;100.00;101537.22;5069762;28;20433;-72
2022/10/02 08:26:29;;;;;;;6.37;1.50;;;;;;;12.37;100.00;101536.72;5069677;28;20206;-72
2022/10/02 08:29:07;;;;;;;6.40;1.37;;;;;;;12.44;100.00;101542.19;5069156;28;20444;-68
2022/10/02 08:31:33;;;;;;;10.90;1.50;;;;;;;12.51;100.00;101553.00;5066547;28;20444;-71
2022/10/02 08:34:16;;;;;;;6.03;1.93;;;;;;;12.60;100.00;101549.94;5065870;28;20538;-71
2022/10/02 08:36:57;;;;;;;9.43;1.80;;;;;;;12.71;100.00;101553.97;5067090;28;20498;-72
2022/10/02 08:40:01;;;;;;;3.27;1.33;;;;;;;12.77;100.00;101546.97;5068170;28;20515;-75
2022/10/02 08:42:51;;;;;;;8.13;1.60;;;;;;;12.95;100.00;101554.56;5065405;28;20534;-72
2022/10/02 08:45:33;;;;;;;9.40;2.10;;;;;;;12.92;100.00;101560.34;5066688;28;20492;-72
2022/10/02 08:48:05;;;;;;;6.33;1.93;;;;;;;13.12;100.00;101558.59;5065474;28;20943;-73
2022/10/02 08:51:04;;;;;;;7.93;2.47;;;;;;;13.07;100.00;101558.34;5063735;28;20810;-74
2022/10/02 08:53:51;;;;;;;8.43;2.20;;;;;;;13.16;100.00;101562.56;5062486;28;20465;-72
2022/10/02 08:56:27;;;;;;;12.57;3.67;;;;;;;13.05;100.00;101568.53;5068638;28;20482;-72
2022/10/02 08:58:58;;;;;;;12.97;2.40;;;;;;;12.70;100.00;101486.88;5068909;28;20497;-74
2022/10/02 09:01:42;;;;;;;16.13;2.30;;;;;;;13.22;100.00;101569.88;5065515;28;20445;-69
2022/10/02 09:04:27;;;;;;;8.97;2.60;;;;;;;13.34;100.00;101560.22;5058994;28;20460;-70
2022/10/02 09:07:11;;;;;;;8.50;2.03;;;;;;;13.12;100.00;101493.97;5067726;28;20536;-72
2022/10/02 09:09:44;;;;;;;6.87;1.83;;;;;;;13.78;100.00;101566.22;5068565;28;20435;-72
2022/10/02 09:12:28;;;;;;;11.40;2.90;;;;;;;13.82;100.00;101566.63;5065801;28;20432;-73
2022/10/02 09:15:40;;;;;;;13.97;2.60;;;;;;;14.01;100.00;101565.88;5062606;28;21127;-72
2022/10/02 09:18:15;;;;;;;7.73;2.17;;;;;;;13.98;100.00;101566.28;5032276;28;20445;-72
2022/10/02 09:20:46;;;;;;;14.67;2.97;;;;;;;14.15;100.00;101572.94;5072968;28;20440;-72
2022/10/02 09:23:30;;;;;;;14.43;2.70;;;;;;;14.23;100.00;101572.75;5075232;28;20774;-74
2022/10/02 09:26:09;;;;;;;10.67;2.80;;;;;;;14.28;100.00;101574.84;5069390;28;20464;-73
2022/10/02 09:29:15;;;;;;;9.27;2.60;;;;;;;13.47;100.00;101451.63;5072259;28;20441;-73
2022/10/02 09:32:16;;;;;;;9.40;2.30;;;;;;;14.22;100.00;101563.00;5070107;28;20473;-72
2022/10/02 09:35:04;;;;;;;9.20;2.97;;;;;;;14.21;100.00;101565.91;5072234;28;20539;-73
2022/10/02 09:37:45;;;;;;;11.20;2.40;;;;;;;14.43;100.00;101558.44;5071266;28;20456;-74
2022/10/02 09:40:16;;;;;;;11.90;3.30;;;;;;;14.38;100.00;101561.78;5065815;28;20444;-74
2022/10/02 09:43:16;;;;;;;7.50;1.80;;;;;;;14.47;100.00;101560.53;5072370;28;20450;-72
2022/10/02 09:46:18;;;;;;;9.90;3.13;;;;;;;14.72;100.00;101576.13;5069869;28;20523;-73
2022/10/02 09:49:07;;;;;;;15.17;2.80;;;;;;;14.64;100.00;101555.59;5060661;28;20484;-71
2022/10/02 09:52:10;;;;;;;14.10;3.23;;;;;;;14.28;100.00;101565.91;5034085;28;20441;-72
2022/10/02 09:54:55;;;;;;;9.03;2.30;;;;;;;14.31;100.00;101566.31;5063751;28;20960;-73
2022/10/02 09:57:42;;;;;;;12.43;2.63;;;;;;;14.18;100.00;101566.31;5056633;28;20676;-72
2022/10/02 10:00:15;;;;;;;11.43;2.77;;;;;;;13.60;100.00;101458.09;5067662;28;20536;-71
2022/10/02 10:02:41;;;;;;;8.60;2.37;;;;;;;14.57;100.00;101568.25;5071574;28;20800;-73
2022/10/02 10:05:41;;;;;;;13.30;2.60;;;;;;;14.48;100.00;101572.97;5059842;28;20450;-72
2022/10/02 10:08:46;;;;;;;9.90;2.13;;;;;;;14.60;100.00;101567.00;5052048;28;20209;-73
2022/10/02 10:11:29;;;;;;;7.53;2.20;;;;;;;14.78;100.00;101560.97;5027209;28;20451;-71
2022/10/02 10:14:19;;;;;;;9.93;3.13;;;;;;;14.90;100.00;101570.94;5072852;28;20538;-72
2022/10/02 10:17:04;;;;;;;7.13;2.33;;;;;;;14.80;100.00;101562.41;5074946;28;20465;-72
2022/10/02 10:20:02;;;;;;;8.70;2.50;;;;;;;14.94;100.00;101536.22;5072653;28;20505;-72
2022/10/02 10:22:38;;;;;;;12.00;2.50;;;;;;;15.07;100.00;101544.31;5058288;22;21016;-84
2022/10/02 10:25:35;;;;;;;10.83;3.00;;;;;;;13.31;100.00;101223.84;5047312;28;20512;-83
2022/10/02 10:28:36;;;;;;;12.00;3.23;;;;;;;15.28;100.00;101551.31;5041845;28;20426;-83
2022/10/02 10:31:44;;;;;;;11.73;2.70;;;;;;;15.64;100.00;101562.63;5015057;28;20835;-83
2022/10/02 10:34:45;;;;;;;10.93;2.43;;;;;;;15.50;100.00;101559.97;5030959;28;21047;-85
2022/10/02 10:40:37;;;;;;;13.17;2.73;;;;;;;14.40;100.00;101543.50;5050588;28;20433;-86
2022/10/02 10:43:25;;;;;;;9.70;2.17;;;;;;;14.49;100.00;101595.41;5049110;28;20418;-84
2022/10/02 10:46:15;;;;;;;10.57;2.30;;;;;;;14.44;100.00;101608.72;5042268;28;20451;-84
2022/10/02 10:48:44;;;;;;;9.60;2.60;;;;;;;14.50;100.00;101610.59;5047954;28;20422;-85
2022/10/02 10:51:29;;;;;;;13.17;2.57;;;;;;;14.51;100.00;101604.13;5045942;28;20493;-86
2022/10/02 10:54:21;;;;;;;15.97;3.17;;;;;;;14.74;100.00;101617.25;5049987;28;20465;-84
2022/10/02 10:57:03;;;;;;;12.50;3.23;;;;;;;13.07;100.00;101289.88;5029320;28;20904;-84
2022/10/02 10:59:50;;;;;;;13.67;2.87;;;;;;;15.40;100.00;101602.84;5047876;28;20461;-83
2022/10/02 11:02:37;;;;;;;12.67;3.57;;;;;;;15.18;100.00;101545.53;5046969;28;20942;-81
2022/10/02 11:05:24;;;;;;;18.57;3.47;;;;;;;15.54;100.00;101585.56;5047062;28;20426;-79
2022/10/02 11:08:08;;;;;;;17.13;3.73;;;;;;;15.72;100.00;101576.75;5043485;28;20433;-81
2022/10/02 11:10:52;;;;;;;12.07;2.30;;;;;;;15.69;100.00;101588.03;5048366;28;20442;-77
2022/10/02 11:13:36;;;;;;;14.00;2.37;;;;;;;15.77;100.00;101578.84;5044803;28;20505;-77
2022/10/02 11:16:39;;;;;;;19.10;2.57;;;;;;;14.90;100.00;101464.78;5038503;28;20430;-82
2022/10/02 11:19:26;;;;;;;8.50;2.37;;;;;;;15.92;100.00;101576.66;5015237;28;20445;-87
2022/10/02 11:22:02;;;;;;;11.17;2.90;;;;;;;14.30;100.00;101326.38;5043919;28;20466;-86
2022/10/02 11:24:54;;;;;;;13.30;2.70;;;;;;;15.05;100.00;101492.34;5044072;28;20852;-79
2022/10/02 11:27:39;;;;;;;14.90;2.47;;;;;;;15.92;100.00;101594.78;5025681;28;20442;-82
2022/10/02 11:30:21;;;;;;;11.20;2.47;;;;;;;14.87;100.00;101467.91;5043556;28;20938;-84
2022/10/02 11:33:11;;;;;;;9.00;2.50;;;;;;;15.89;100.00;101589.81;5046980;28;20419;-80
2022/10/02 11:35:51;;;;;;;13.90;2.80;;;;;;;14.97;100.00;101424.22;5048311;28;20430;-83
2022/10/02 11:38:38;;;;;;;9.03;2.50;;;;;;;14.77;100.00;101325.19;5046465;28;20465;-88
2022/10/02 11:41:32;;;;;;;13.23;2.60;;;;;;;16.36;100.00;101593.06;5047718;28;20512;-85
2022/10/02 11:44:15;;;;;;;15.13;3.30;;;;;;;14.22;100.00;101293.19;5026068;28;20984;-88
2022/10/02 11:47:03;;;;;;;8.60;2.10;;;;;;;16.50;100.00;101592.75;5031872;28;20432;-82
2022/10/02 11:49:50;;;;;;;14.93;2.93;;;;;;;16.53;100.00;101598.78;5048966;28;20437;-87
2022/10/02 11:52:44;;;;;;;23.37;3.20;;;;;;;14.49;100.00;101352.47;5048627;28;20961;-81
2022/10/02 11:55:32;;;;;;;8.60;3.00;;;;;;;16.66;100.00;101596.81;5045224;28;20520;-84
2022/10/02 11:58:32;;;;;;;12.43;2.80;;;;;;;15.63;100.00;101528.53;5015075;28;20778;-77
2022/10/02 12:01:13;;;;;;;14.30;3.00;;;;;;;15.95;100.00;101600.59;5029533;28;20458;-82
2022/10/02 12:03:47;;;;;;;10.53;2.87;;;;;;;14.25;100.00;101283.84;5047998;28;20419;-82
2022/10/02 12:06:14;;;;;;;22.83;3.83;;;;;;;16.36;100.00;101612.03;5022358;28;20877;-83
2022/10/02 12:08:55;;;;;;;10.93;2.67;;;;;;;15.22;100.00;101481.91;5043127;28;20450;-82
2022/10/02 12:11:46;;;;;;;9.73;2.90;;;;;;;16.61;100.00;101615.59;5043469;28;20465;-81
2022/10/02 12:14:27;;;;;;;10.83;2.10;;;;;;;16.39;100.00;101630.53;5045148;28;20460;-84
2022/10/02 12:17:05;;;;;;;9.27;2.00;;;;;;;16.76;100.00;101628.00;5042355;28;20438;-84
2022/10/02 12:26:58;;;;;;;11.43;2.87;;;;;;;16.97;100.00;101648.47;5040900;28;20438;-84